Karin S — V2BM6 — position and weather

sailwx.info

Track history (hours):
 
Tides and Currents Weather Stations Pressure Air Temp Water Temp Dewpoint Dewpoint Depression Visibility Wind Speed Wind Dir Waves Ship Positions

Karin S

Last reported at 2014-Dec-18 14:11 UTC. Time now 2014-Dec-18 15:27 UTC.
Position N 41°18' E 002°09'.

Length 148 m; draft 8.5 m.

Type: Ship (hazmat cat A). MMSI: 304871000.

Date/timePositionNaut miles runAvg speedWind from/ knotsBaromVisibWave heightAir tempDewpointWater temp
2014-Dec-18 14:11N 41°18' E 002°09'0 0.0
2014-Dec-18 13:29N 41°18' E 002°09'0 0.0
2014-Dec-18 12:23N 41°18' E 002°09'0 0.0
2014-Dec-18 10:23N 41°18' E 002°09'0 0.0
2014-Dec-18 09:17N 41°18' E 002°09'0 0.0
2014-Dec-18 08:23N 41°18' E 002°09'1 1.3
2014-Dec-18 07:33N 41°19' E 002°10'2 2.0
2014-Dec-18 06:30N 41°17' E 002°11'2 2.1
2014-Dec-18 05:32N 41°15' E 002°10'4 3.8
2014-Dec-18 04:34N 41°11' E 002°09'1 0.8
2014-Dec-18 03:33N 41°12' E 002°09'1 0.8
2014-Dec-18 02:26N 41°12' E 002°08'3 3.6
2014-Dec-18 01:29N 41°10' E 002°05'6 4.0
2014-Dec-18 00:06N 41°05' E 002°01'6 3.7
2014-Dec-17 22:33N 41°00' E 001°57'4 3.7
2014-Dec-17 21:26N 40°57' E 001°54'3 3.5
2014-Dec-17 20:33N 40°54' E 001°52'4 3.9
2014-Dec-17 19:30N 40°51' E 001°49'4 4.2
2014-Dec-17 18:33N 40°47' E 001°46'4 4.0
2014-Dec-17 17:33N 40°44' E 001°43'4 4.3
2014-Dec-17 16:33N 40°40' E 001°40'4 4.5
2014-Dec-17 15:33N 40°37' E 001°37'4 4.1
2014-Dec-17 14:33N 40°33' E 001°34'4 4.3
2014-Dec-17 13:33N 40°30' E 001°30'5 4.6
2014-Dec-17 12:33N 40°26' E 001°27'4 4.0
2014-Dec-17 11:33N 40°22' E 001°25'3 2.7
2014-Dec-17 10:33N 40°20' E 001°23'3 2.6
2014-Dec-17 09:33N 40°18' E 001°21'3 2.5
2014-Dec-17 08:33N 40°16' E 001°19'3 2.7
2014-Dec-17 07:33N 40°13' E 001°18'3 3.1
2014-Dec-17 06:33N 40°11' E 001°16'3 3.2
2014-Dec-17 05:32N 40°08' E 001°13'4 3.3
2014-Dec-17 04:26N 40°05' E 001°11'3 3.3
2014-Dec-17 03:33N 40°03' E 001°08'4 3.9
2014-Dec-17 02:33N 39°59' E 001°06'5 4.5
2014-Dec-17 01:33N 39°56' E 001°02'6 4.0
2014-Dec-17 00:08N 39°51' E 000°58'54 3.3
2014-Dec-16 07:33N 39°28' W 000°06'1110.8
2014-Dec-16 06:33N 39°26' W 000°19'0 0.2
2014-Dec-16 05:33N 39°26' W 000°19'0 0.0
2014-Dec-16 04:33N 39°26' W 000°19'0 0.0
2014-Dec-16 03:32N 39°26' W 000°19'0 0.0
2014-Dec-16 02:33N 39°26' W 000°19'0 0.0
2014-Dec-16 01:33N 39°26' W 000°19'0 0.0
2014-Dec-16 00:33N 39°26' W 000°19'0 0.0
2014-Dec-15 23:29N 39°26' W 000°19'0 0.0
2014-Dec-15 22:22N 39°26' W 000°19'0 0.0
2014-Dec-15 20:24N 39°26' W 000°19'0 0.0
2014-Dec-15 19:18N 39°26' W 000°19'0 0.0
2014-Dec-15 16:18N 39°26' W 000°19'0 0.0
2014-Dec-15 13:12N 39°26' W 000°19'0 0.0
2014-Dec-15 12:30N 39°26' W 000°19'2 2.6
2014-Dec-15 11:32N 39°25' W 000°17'1 0.9
2014-Dec-15 10:15N 39°24' W 000°18'0 0.0
2014-Dec-15 09:06N 39°24' W 000°18'0 0.0
2014-Dec-15 08:12N 39°24' W 000°18'0 0.1
2014-Dec-15 07:15N 39°24' W 000°18'0 0.0
2014-Dec-15 06:24N 39°24' W 000°18'0 0.1
2014-Dec-15 05:30N 39°24' W 000°18'0 0.0
2014-Dec-15 04:33N 39°24' W 000°18'0 0.1
2014-Dec-15 03:30N 39°24' W 000°18'0 0.2
2014-Dec-15 02:33N 39°24' W 000°18'0 0.1
2014-Dec-15 01:33N 39°24' W 000°18'0 0.0
2014-Dec-15 00:27N 39°24' W 000°18'0 0.1
2014-Dec-14 23:33N 39°24' W 000°18'0 0.1
2014-Dec-14 22:06N 39°24' W 000°18'0 0.2
2014-Dec-14 21:33N 39°24' W 000°18'0 0.2
2014-Dec-14 20:30N 39°24' W 000°18'0 0.2
2014-Dec-14 19:33N 39°24' W 000°18'0 0.0
2014-Dec-14 18:33N 39°24' W 000°18'3 3.0
2014-Dec-14 17:32N 39°24' W 000°14'8 7.7
2014-Dec-14 16:33N 39°25' W 000°04'8310.4
2014-Dec-14 08:33N 38°23' E 001°08'1211.3
2014-Dec-14 07:26N 38°14' E 001°19'1112.1
2014-Dec-14 06:31N 38°07' E 001°29'1312.0
2014-Dec-14 05:28N 37°58' E 001°40'5012.6
2014-Dec-14 01:30N 37°22' E 002°25'1212.8
2014-Dec-14 00:33N 37°14' E 002°36'  
Track history (hours):
 
Tides and Currents Weather Stations Pressure Air Temp Water Temp Dewpoint Dewpoint Depression Visibility Wind Speed Wind Dir Waves Ship Positions

Karin S

Last reported at 2014-Dec-18 14:11 UTC. Time now 2014-Dec-18 15:28 UTC.
Position N 41°18' E 002°09'.

Length 148 m; draft 8.5 m.

Type: Ship (hazmat cat A). MMSI: 304871000.

Date/timePositionNaut miles runAvg speedWind from/ knotsBaromVisibWave heightAir tempDewpointWater temp
2014-Dec-18 14:11N 41°18' E 002°09'0 0.0
2014-Dec-18 13:29N 41°18' E 002°09'0 0.0
2014-Dec-18 12:23N 41°18' E 002°09'0 0.0
2014-Dec-18 10:23N 41°18' E 002°09'0 0.0
2014-Dec-18 09:17N 41°18' E 002°09'0 0.0
2014-Dec-18 08:23N 41°18' E 002°09'1 1.3
2014-Dec-18 07:33N 41°19' E 002°10'2 2.0
2014-Dec-18 06:30N 41°17' E 002°11'2 2.1
2014-Dec-18 05:32N 41°15' E 002°10'4 3.8
2014-Dec-18 04:34N 41°11' E 002°09'1 0.8
2014-Dec-18 03:33N 41°12' E 002°09'1 0.8
2014-Dec-18 02:26N 41°12' E 002°08'3 3.6
2014-Dec-18 01:29N 41°10' E 002°05'6 4.0
2014-Dec-18 00:06N 41°05' E 002°01'6 3.7
2014-Dec-17 22:33N 41°00' E 001°57'4 3.7
2014-Dec-17 21:26N 40°57' E 001°54'3 3.5
2014-Dec-17 20:33N 40°54' E 001°52'4 3.9
2014-Dec-17 19:30N 40°51' E 001°49'4 4.2
2014-Dec-17 18:33N 40°47' E 001°46'4 4.0
2014-Dec-17 17:33N 40°44' E 001°43'4 4.3
2014-Dec-17 16:33N 40°40' E 001°40'4 4.5
2014-Dec-17 15:33N 40°37' E 001°37'4 4.1
2014-Dec-17 14:33N 40°33' E 001°34'4 4.3
2014-Dec-17 13:33N 40°30' E 001°30'5 4.6
2014-Dec-17 12:33N 40°26' E 001°27'4 4.0
2014-Dec-17 11:33N 40°22' E 001°25'3 2.7
2014-Dec-17 10:33N 40°20' E 001°23'3 2.6
2014-Dec-17 09:33N 40°18' E 001°21'3 2.5
2014-Dec-17 08:33N 40°16' E 001°19'3 2.7
2014-Dec-17 07:33N 40°13' E 001°18'3 3.1
2014-Dec-17 06:33N 40°11' E 001°16'3 3.2
2014-Dec-17 05:32N 40°08' E 001°13'4 3.3
2014-Dec-17 04:26N 40°05' E 001°11'3 3.3
2014-Dec-17 03:33N 40°03' E 001°08'4 3.9
2014-Dec-17 02:33N 39°59' E 001°06'5 4.5
2014-Dec-17 01:33N 39°56' E 001°02'6 4.0
2014-Dec-17 00:08N 39°51' E 000°58'54 3.3
2014-Dec-16 07:33N 39°28' W 000°06'1110.8
2014-Dec-16 06:33N 39°26' W 000°19'0 0.2
2014-Dec-16 05:33N 39°26' W 000°19'0 0.0
2014-Dec-16 04:33N 39°26' W 000°19'0 0.0
2014-Dec-16 03:32N 39°26' W 000°19'0 0.0
2014-Dec-16 02:33N 39°26' W 000°19'0 0.0
2014-Dec-16 01:33N 39°26' W 000°19'0 0.0
2014-Dec-16 00:33N 39°26' W 000°19'0 0.0
2014-Dec-15 23:29N 39°26' W 000°19'0 0.0
2014-Dec-15 22:22N 39°26' W 000°19'0 0.0
2014-Dec-15 20:24N 39°26' W 000°19'0 0.0
2014-Dec-15 19:18N 39°26' W 000°19'0 0.0
2014-Dec-15 16:18N 39°26' W 000°19'0 0.0
2014-Dec-15 13:12N 39°26' W 000°19'0 0.0
2014-Dec-15 12:30N 39°26' W 000°19'2 2.6
2014-Dec-15 11:32N 39°25' W 000°17'1 0.9
2014-Dec-15 10:15N 39°24' W 000°18'0 0.0
2014-Dec-15 09:06N 39°24' W 000°18'0 0.0
2014-Dec-15 08:12N 39°24' W 000°18'0 0.1
2014-Dec-15 07:15N 39°24' W 000°18'0 0.0
2014-Dec-15 06:24N 39°24' W 000°18'0 0.1
2014-Dec-15 05:30N 39°24' W 000°18'0 0.0
2014-Dec-15 04:33N 39°24' W 000°18'0 0.1
2014-Dec-15 03:30N 39°24' W 000°18'0 0.2
2014-Dec-15 02:33N 39°24' W 000°18'0 0.1
2014-Dec-15 01:33N 39°24' W 000°18'0 0.0
2014-Dec-15 00:27N 39°24' W 000°18'0 0.1
2014-Dec-14 23:33N 39°24' W 000°18'0 0.1
2014-Dec-14 22:06N 39°24' W 000°18'0 0.2
2014-Dec-14 21:33N 39°24' W 000°18'0 0.2
2014-Dec-14 20:30N 39°24' W 000°18'0 0.2
2014-Dec-14 19:33N 39°24' W 000°18'0 0.0
2014-Dec-14 18:33N 39°24' W 000°18'3 3.0
2014-Dec-14 17:32N 39°24' W 000°14'8 7.7
2014-Dec-14 16:33N 39°25' W 000°04'8310.4
2014-Dec-14 08:33N 38°23' E 001°08'1211.3
2014-Dec-14 07:26N 38°14' E 001°19'1112.1
2014-Dec-14 06:31N 38°07' E 001°29'1312.0
2014-Dec-14 05:28N 37°58' E 001°40'5012.6
2014-Dec-14 01:30N 37°22' E 002°25'1212.8
2014-Dec-14 00:33N 37°14' E 002°36'  

Dump ship's entire track history